createdAt,value
2023-02-19T00:00:54.322Z,67.44
2023-02-19T00:03:26.601Z,67.26
2023-02-19T00:05:58.723Z,67.50
2023-02-19T00:08:32.880Z,67.38
2023-02-19T00:11:10.945Z,67.59
2023-02-19T00:13:44.847Z,67.45
2023-02-19T00:16:19.888Z,67.60
2023-02-19T00:18:52.145Z,67.50
2023-02-19T00:21:24.848Z,67.58
2023-02-19T00:24:00.220Z,67.43
2023-02-19T00:26:32.321Z,67.56
2023-02-19T00:29:04.337Z,67.46
2023-02-19T00:31:37.142Z,67.64
2023-02-19T00:34:10.053Z,68.07
2023-02-19T00:36:43.505Z,67.93
2023-02-19T00:39:18.757Z,67.98
2023-02-19T00:41:51.845Z,67.77
2023-02-19T00:44:24.251Z,67.75
2023-02-19T00:46:56.226Z,67.80
2023-02-19T00:49:28.782Z,67.68
2023-02-19T00:52:00.762Z,67.97
2023-02-19T00:54:32.750Z,68.23
2023-02-19T00:57:06.458Z,67.61
2023-02-19T00:59:38.566Z,67.55
2023-02-19T01:02:10.586Z,67.65
2023-02-19T01:04:42.882Z,67.82
2023-02-19T01:07:14.895Z,67.70
2023-02-19T01:09:47.935Z,67.83
2023-02-19T01:12:19.720Z,67.63
2023-02-19T01:14:52.118Z,67.25
2023-02-19T01:17:24.283Z,67.54
2023-02-19T01:19:56.589Z,67.76
2023-02-19T01:22:28.510Z,68.00
2023-02-19T01:25:00.642Z,67.84
2023-02-19T01:27:33.155Z,67.91
2023-02-19T01:30:05.440Z,68.13
2023-02-19T01:32:37.465Z,68.00
2023-02-19T01:35:10.291Z,68.06
2023-02-19T01:37:42.441Z,68.11
2023-02-19T01:40:14.502Z,68.09
2023-02-19T01:42:46.481Z,68.22
2023-02-19T01:45:29.828Z,67.99
2023-02-19T01:48:10.754Z,68.13
2023-02-19T01:50:54.688Z,68.31
2023-02-19T01:53:29.936Z,68.18
2023-02-19T01:56:03.706Z,67.99
2023-02-19T01:58:38.036Z,68.28
2023-02-19T02:01:11.321Z,68.41
2023-02-19T02:03:46.657Z,68.48
2023-02-19T02:06:27.201Z,68.67
2023-02-19T02:09:18.781Z,68.69
2023-02-19T02:11:53.331Z,68.58
2023-02-19T02:14:28.458Z,68.66
2023-02-19T02:17:24.202Z,68.84
2023-02-19T02:20:18.996Z,69.03
2023-02-19T02:22:59.388Z,69.05
2023-02-19T02:25:43.449Z,69.02
2023-02-19T02:28:24.268Z,69.09
2023-02-19T02:31:02.535Z,69.10
2023-02-19T02:33:46.498Z,69.18
2023-02-19T02:36:27.346Z,69.21
2023-02-19T02:39:04.912Z,69.25
2023-02-19T02:41:41.406Z,69.13
2023-02-19T02:44:15.188Z,68.87
2023-02-19T02:46:48.401Z,69.24
2023-02-19T02:49:22.973Z,69.11
2023-02-19T02:51:57.686Z,69.17
2023-02-19T02:54:50.756Z,69.11
2023-02-19T02:57:24.347Z,69.24
2023-02-19T02:59:57.467Z,69.29
2023-02-19T03:02:32.521Z,69.53
2023-02-19T03:05:30.727Z,69.22
2023-02-19T03:08:11.660Z,69.43
2023-02-19T03:10:47.592Z,69.63
2023-02-19T03:13:40.274Z,69.62
2023-02-19T03:16:47.887Z,69.79
2023-02-19T03:19:22.967Z,69.79
2023-02-19T03:22:10.900Z,70.04
2023-02-19T03:25:03.461Z,70.38
2023-02-19T03:27:37.277Z,70.41
2023-02-19T03:30:18.558Z,70.36
2023-02-19T03:33:02.153Z,70.53
2023-02-19T03:35:39.747Z,70.90
2023-02-19T03:38:22.439Z,70.76
2023-02-19T03:41:24.836Z,70.92
2023-02-19T03:44:15.734Z,70.77
2023-02-19T03:47:01.210Z,70.85
2023-02-19T03:49:51.147Z,70.90
2023-02-19T03:52:45.766Z,71.92
2023-02-19T03:55:26.736Z,72.31
2023-02-19T03:58:01.623Z,72.87
2023-02-19T04:00:37.089Z,72.29
2023-02-19T04:03:31.832Z,72.15
2023-02-19T04:06:08.030Z,72.88
2023-02-19T04:08:43.218Z,72.80
2023-02-19T04:11:17.889Z,72.86
2023-02-19T04:14:07.801Z,72.67
2023-02-19T04:16:43.210Z,72.58
2023-02-19T04:19:18.131Z,73.47
2023-02-19T04:21:53.232Z,73.29
2023-02-19T04:24:28.477Z,74.94
2023-02-19T04:27:00.844Z,74.60
2023-02-19T04:29:32.953Z,75.14
2023-02-19T04:32:05.307Z,74.30
2023-02-19T04:34:37.377Z,74.30
2023-02-19T04:37:27.148Z,74.28
2023-02-19T04:39:59.092Z,74.58
2023-02-19T04:42:32.716Z,74.51
2023-02-19T04:45:04.859Z,74.68
2023-02-19T04:47:36.796Z,75.10
2023-02-19T04:50:09.046Z,75.25
2023-02-19T04:52:41.430Z,75.02
2023-02-19T04:55:14.203Z,74.87
2023-02-19T04:57:46.109Z,75.10
2023-02-19T05:00:18.487Z,74.78
2023-02-19T05:02:51.072Z,75.66
2023-02-19T05:05:23.323Z,75.01
2023-02-19T05:07:55.389Z,75.67
2023-02-19T05:10:27.336Z,75.66
2023-02-19T05:13:00.152Z,75.13
2023-02-19T05:15:33.451Z,75.17
2023-02-19T05:18:06.162Z,75.17
2023-02-19T05:20:39.110Z,75.12
2023-02-19T05:23:11.347Z,74.73
2023-02-19T05:25:43.992Z,75.02
2023-02-19T05:28:19.616Z,75.82
2023-02-19T05:30:54.133Z,75.75
2023-02-19T05:33:27.919Z,75.55
2023-02-19T05:36:00.490Z,76.19
2023-02-19T05:38:32.538Z,76.40
2023-02-19T05:41:17.373Z,76.11
2023-02-19T05:43:50.583Z,76.25
2023-02-19T05:46:25.294Z,76.06
2023-02-19T05:48:58.493Z,75.83
2023-02-19T05:51:31.116Z,75.52
2023-02-19T05:54:03.642Z,75.57
2023-02-19T05:56:41.424Z,75.68
2023-02-19T05:59:22.088Z,75.70
2023-02-19T06:01:56.129Z,75.63
2023-02-19T06:04:27.422Z,75.59
2023-02-19T06:06:59.281Z,76.50
2023-02-19T06:09:32.605Z,75.55
2023-02-19T06:12:04.588Z,75.15
2023-02-19T06:14:36.798Z,75.79
2023-02-19T06:17:08.938Z,75.50
2023-02-19T06:19:41.801Z,75.92
2023-02-19T06:22:15.446Z,75.16
2023-02-19T06:24:48.349Z,74.85
2023-02-19T06:27:21.497Z,74.80
2023-02-19T06:29:54.250Z,74.92
2023-02-19T06:32:26.806Z,74.63
2023-02-19T06:34:58.969Z,74.41
2023-02-19T06:37:31.772Z,74.14
2023-02-19T06:40:04.349Z,73.99
2023-02-19T06:42:36.525Z,74.58
2023-02-19T06:45:09.409Z,73.55
2023-02-19T06:47:42.377Z,72.83
2023-02-19T06:50:17.115Z,72.62
2023-02-19T06:52:49.831Z,73.66
2023-02-19T06:55:21.781Z,73.32
2023-02-19T06:57:54.103Z,72.71
2023-02-19T07:00:27.372Z,72.19
2023-02-19T07:03:00.537Z,72.13
2023-02-19T07:05:33.035Z,71.56
2023-02-19T07:08:06.075Z,71.20
2023-02-19T07:10:38.543Z,70.72
2023-02-19T07:13:10.716Z,69.83
2023-02-19T07:15:42.953Z,70.06
2023-02-19T07:18:15.265Z,69.46
2023-02-19T07:20:47.113Z,71.38
2023-02-19T07:23:19.291Z,69.17
2023-02-19T07:25:51.359Z,69.68
2023-02-19T07:28:23.569Z,68.30
2023-02-19T07:30:57.646Z,68.46
2023-02-19T07:33:29.825Z,68.58
2023-02-19T07:36:02.338Z,68.88
2023-02-19T07:38:34.646Z,68.37
2023-02-19T07:41:08.504Z,66.98
2023-02-19T07:43:40.512Z,66.45
2023-02-19T07:46:14.699Z,67.99
2023-02-19T07:48:46.897Z,67.55
2023-02-19T07:51:21.279Z,68.03
2023-02-19T07:53:53.964Z,68.84
2023-02-19T07:56:26.185Z,68.42
2023-02-19T07:59:01.182Z,69.54
2023-02-19T08:01:51.734Z,69.71
2023-02-19T08:04:24.197Z,69.38
2023-02-19T08:06:57.295Z,71.09
2023-02-19T08:09:29.508Z,70.56
2023-02-19T08:12:20.269Z,69.29
2023-02-19T08:14:52.702Z,72.07
2023-02-19T08:17:26.260Z,70.65
2023-02-19T08:19:58.848Z,72.47
2023-02-19T08:22:32.868Z,70.84
2023-02-19T08:25:05.858Z,69.74
2023-02-19T08:27:38.613Z,68.59
2023-02-19T08:30:12.174Z,68.01
2023-02-19T08:32:44.610Z,66.95
2023-02-19T08:35:17.610Z,71.50
2023-02-19T08:37:50.668Z,70.43
2023-02-19T08:40:23.559Z,70.81
2023-02-19T08:42:56.757Z,71.15
2023-02-19T08:45:29.594Z,71.17
2023-02-19T08:48:02.103Z,70.26
2023-02-19T08:50:35.824Z,69.95
2023-02-19T08:53:09.659Z,71.25
2023-02-19T08:55:42.527Z,71.46
2023-02-19T08:58:15.477Z,71.22
2023-02-19T09:00:47.808Z,72.42
2023-02-19T09:03:20.118Z,72.78
2023-02-19T09:05:52.683Z,72.34
2023-02-19T09:08:25.839Z,72.88
2023-02-19T09:11:07.721Z,74.06
2023-02-19T09:13:41.089Z,74.38
2023-02-19T09:16:13.940Z,73.61
2023-02-19T09:18:46.995Z,72.49
2023-02-19T09:21:19.929Z,73.62
2023-02-19T09:23:52.255Z,72.40
2023-02-19T09:26:25.880Z,73.09
2023-02-19T09:28:58.309Z,72.69
2023-02-19T09:31:30.668Z,74.83
2023-02-19T09:34:03.534Z,73.05
2023-02-19T09:36:36.776Z,73.74
2023-02-19T09:39:11.395Z,73.22
2023-02-19T09:41:56.084Z,72.80
2023-02-19T09:44:34.198Z,71.99
2023-02-19T09:47:09.855Z,71.52
2023-02-19T09:49:46.941Z,71.66
2023-02-19T09:52:34.855Z,72.17
2023-02-19T09:55:16.183Z,72.79
2023-02-19T09:57:49.880Z,72.42
2023-02-19T10:00:27.567Z,73.16
2023-02-19T10:03:05.518Z,74.06
2023-02-19T10:05:40.103Z,72.76
2023-02-19T10:08:15.864Z,72.26
2023-02-19T10:10:48.075Z,71.71
2023-02-19T10:13:23.300Z,71.61
2023-02-19T10:16:01.138Z,70.62
2023-02-19T10:18:43.895Z,70.18
2023-02-19T10:21:20.304Z,69.10
2023-02-19T10:23:58.500Z,67.83
2023-02-19T10:26:32.405Z,68.54
2023-02-19T10:29:05.912Z,69.10
2023-02-19T10:31:38.328Z,67.17
2023-02-19T10:34:13.608Z,68.20
2023-02-19T10:36:47.568Z,68.92
2023-02-19T10:39:39.650Z,70.62
2023-02-19T10:42:23.591Z,69.12
2023-02-19T10:44:59.570Z,69.48
2023-02-19T10:47:34.006Z,70.49
2023-02-19T10:50:06.536Z,69.60
2023-02-19T10:52:39.058Z,68.44
2023-02-19T10:55:32.901Z,67.60
2023-02-19T10:58:24.710Z,67.45
2023-02-19T11:01:22.822Z,67.79
2023-02-19T11:04:15.833Z,66.03
2023-02-19T11:06:49.051Z,67.44
2023-02-19T11:09:42.108Z,66.91
2023-02-19T11:12:17.466Z,68.10
2023-02-19T11:14:50.089Z,69.22
2023-02-19T11:17:31.692Z,71.63
2023-02-19T11:20:09.404Z,73.39
2023-02-19T11:22:47.825Z,73.43
2023-02-19T11:25:24.315Z,72.62
2023-02-19T11:28:32.052Z,72.87
2023-02-19T11:31:25.460Z,71.88
2023-02-19T11:34:02.974Z,72.17
2023-02-19T11:36:37.194Z,69.71
2023-02-19T11:39:18.865Z,67.61
2023-02-19T11:42:00.778Z,70.57
2023-02-19T11:44:55.396Z,69.59
2023-02-19T11:47:48.914Z,68.49
2023-02-19T11:50:58.403Z,68.72
2023-02-19T11:53:38.885Z,68.60
2023-02-19T11:56:26.101Z,72.54
2023-02-19T11:59:19.327Z,73.58
2023-02-19T12:02:11.145Z,72.79
2023-02-19T12:04:58.576Z,72.81
2023-02-19T12:08:06.506Z,73.50
2023-02-19T12:10:53.571Z,72.19
2023-02-19T12:13:34.521Z,72.83
2023-02-19T12:16:15.468Z,72.29
2023-02-19T12:19:02.036Z,71.66
2023-02-19T12:21:46.004Z,72.82
2023-02-19T12:24:35.812Z,73.48
2023-02-19T12:27:19.535Z,72.98
2023-02-19T12:30:06.111Z,72.47
2023-02-19T12:32:44.349Z,72.65
2023-02-19T12:35:25.425Z,72.84
2023-02-19T12:38:09.564Z,71.57
2023-02-19T12:40:56.383Z,71.57
2023-02-19T12:43:30.264Z,71.59
2023-02-19T12:46:14.712Z,72.36
2023-02-19T12:49:02.697Z,71.79
2023-02-19T12:51:54.320Z,72.01
2023-02-19T12:54:32.247Z,72.84
2023-02-19T12:57:07.359Z,72.24
2023-02-19T12:59:51.564Z,72.42
2023-02-19T13:02:44.613Z,72.71
2023-02-19T13:05:28.597Z,72.72
2023-02-19T13:08:07.053Z,73.82
2023-02-19T13:10:50.833Z,73.41
2023-02-19T13:13:28.783Z,73.71
2023-02-19T13:16:10.616Z,73.21
2023-02-19T13:18:51.705Z,71.19
2023-02-19T13:21:43.879Z,70.74
2023-02-19T13:24:25.451Z,70.82
2023-02-19T13:27:03.856Z,70.89
2023-02-19T13:29:52.850Z,71.65
2023-02-19T13:32:46.758Z,71.55
2023-02-19T13:35:30.453Z,72.17
2023-02-19T13:40:40.342Z,72.31
2023-02-19T13:43:27.765Z,71.92
2023-02-19T13:46:02.761Z,74.43
2023-02-19T13:48:37.698Z,74.86
2023-02-19T13:51:25.560Z,73.85
2023-02-19T13:54:02.420Z,73.78
2023-02-19T13:56:37.676Z,73.54
2023-02-19T13:59:24.989Z,73.20
2023-02-19T14:02:01.008Z,72.77
2023-02-19T14:04:51.953Z,72.17
2023-02-19T14:07:30.151Z,71.64
2023-02-19T14:10:03.317Z,71.54
2023-02-19T14:12:37.602Z,72.53
2023-02-19T14:15:27.745Z,72.07
2023-02-19T14:18:00.273Z,71.68
2023-02-19T14:20:44.215Z,72.56
2023-02-19T14:23:19.480Z,73.53
2023-02-19T14:25:57.497Z,75.27
2023-02-19T14:28:38.413Z,74.25
2023-02-19T14:31:22.146Z,74.72
2023-02-19T14:34:06.938Z,74.25
2023-02-19T14:36:54.114Z,74.34
2023-02-19T14:39:29.269Z,73.64
2023-02-19T14:42:09.709Z,74.11
2023-02-19T14:44:47.313Z,74.70
2023-02-19T14:47:25.412Z,74.16
2023-02-19T14:50:12.338Z,74.92
2023-02-19T14:52:47.682Z,74.20
2023-02-19T14:55:38.056Z,74.02
2023-02-19T14:58:18.701Z,74.77
2023-02-19T15:00:51.275Z,74.76
2023-02-19T15:03:37.927Z,74.99
2023-02-19T15:06:16.504Z,74.49
2023-02-19T15:08:52.735Z,75.10
2023-02-19T15:11:28.423Z,74.55
2023-02-19T15:14:07.902Z,74.47
2023-02-19T15:16:41.850Z,73.90
2023-02-19T15:19:18.342Z,73.79
2023-02-19T15:21:52.255Z,73.87
2023-02-19T15:24:25.475Z,74.29
2023-02-19T15:26:57.716Z,74.28
2023-02-19T15:29:30.687Z,74.41
2023-02-19T15:32:06.795Z,73.79
2023-02-19T15:34:41.427Z,73.60
2023-02-19T15:37:15.790Z,74.32
2023-02-19T15:39:51.227Z,74.09
2023-02-19T15:42:26.719Z,75.49
2023-02-19T15:45:19.482Z,74.98
2023-02-19T15:47:57.500Z,74.90
2023-02-19T15:50:32.714Z,74.75
2023-02-19T15:53:17.105Z,73.91
2023-02-19T15:56:10.363Z,74.20
2023-02-19T15:58:45.804Z,73.90
2023-02-19T16:01:32.651Z,74.60
2023-02-19T16:04:07.364Z,74.90
2023-02-19T16:07:00.402Z,75.10
2023-02-19T16:09:40.521Z,74.17
2023-02-19T16:12:27.511Z,75.09
2023-02-19T16:14:59.917Z,74.75
2023-02-19T16:17:33.540Z,74.49
2023-02-19T16:20:05.834Z,73.98
2023-02-19T16:22:40.832Z,73.71
2023-02-19T16:25:24.689Z,73.46
2023-02-19T16:27:57.218Z,73.70
2023-02-19T16:30:34.135Z,73.14
2023-02-19T16:33:33.610Z,72.99
2023-02-19T16:36:23.566Z,73.50
2023-02-19T16:39:19.089Z,73.58
2023-02-19T16:41:54.345Z,73.70
2023-02-19T16:44:31.552Z,73.86
2023-02-19T16:47:15.260Z,73.35
2023-02-19T16:49:47.655Z,74.00
2023-02-19T16:52:19.685Z,73.41
2023-02-19T16:54:51.882Z,73.10
2023-02-19T16:57:24.018Z,72.98
2023-02-19T16:59:55.976Z,72.60
2023-02-19T17:02:28.077Z,73.44
2023-02-19T17:05:00.675Z,72.94
2023-02-19T17:07:32.953Z,73.64
2023-02-19T17:10:05.209Z,73.99
2023-02-19T17:12:37.337Z,74.78
2023-02-19T17:15:10.872Z,74.83
2023-02-19T17:17:44.803Z,74.34
2023-02-19T17:20:26.559Z,74.54
2023-02-19T17:22:59.089Z,74.36
2023-02-19T17:25:31.565Z,74.92
2023-02-19T17:28:03.593Z,75.14
2023-02-19T17:30:37.748Z,74.82
2023-02-19T17:33:08.869Z,74.59
2023-02-19T17:35:42.327Z,75.23
2023-02-19T17:38:15.810Z,74.46
2023-02-19T17:40:48.024Z,74.10
2023-02-19T17:43:20.359Z,74.76
2023-02-19T17:45:52.875Z,74.39
2023-02-19T17:48:25.250Z,74.71
2023-02-19T17:50:58.190Z,74.36
2023-02-19T17:53:30.535Z,75.54
2023-02-19T17:56:02.747Z,74.30
2023-02-19T17:58:37.196Z,74.38
2023-02-19T18:01:09.523Z,73.96
2023-02-19T18:03:42.009Z,74.19
2023-02-19T18:06:14.054Z,74.39
2023-02-19T18:08:51.558Z,74.11
2023-02-19T18:11:24.074Z,74.29
2023-02-19T18:13:56.362Z,74.08
2023-02-19T18:16:29.830Z,73.94
2023-02-19T18:19:02.405Z,74.04
2023-02-19T18:21:34.986Z,74.06
2023-02-19T18:24:07.551Z,73.94
2023-02-19T18:26:41.148Z,73.86
2023-02-19T18:29:13.798Z,73.82
2023-02-19T18:31:45.988Z,73.79
2023-02-19T18:34:19.832Z,73.74
2023-02-19T18:36:51.475Z,73.74
2023-02-19T18:39:23.344Z,74.44
2023-02-19T18:41:55.455Z,73.52
2023-02-19T18:44:27.626Z,73.43
2023-02-19T18:46:59.480Z,73.39
2023-02-19T18:49:32.411Z,73.55
2023-02-19T18:52:04.515Z,73.34
2023-02-19T18:54:37.144Z,73.45
2023-02-19T18:57:09.076Z,73.43
2023-02-19T18:59:45.170Z,73.33
2023-02-19T19:02:17.837Z,73.21
2023-02-19T19:04:52.124Z,73.22
2023-02-19T19:07:24.108Z,73.29
2023-02-19T19:09:56.183Z,73.21
2023-02-19T19:12:28.198Z,73.23
2023-02-19T19:15:00.160Z,73.02
2023-02-19T19:17:33.685Z,72.94
2023-02-19T19:20:06.624Z,73.08
2023-02-19T19:22:38.656Z,72.79
2023-02-19T19:25:11.066Z,72.84
2023-02-19T19:27:43.002Z,72.78
2023-02-19T19:30:15.723Z,72.83
2023-02-19T19:32:51.877Z,72.69
2023-02-19T19:35:24.621Z,72.55
2023-02-19T19:37:56.876Z,72.60
2023-02-19T19:40:28.776Z,72.38
2023-02-19T19:43:00.799Z,72.67
2023-02-19T19:45:32.629Z,72.61
2023-02-19T19:48:04.833Z,72.62
2023-02-19T19:50:36.785Z,72.61
2023-02-19T19:53:08.828Z,72.61
2023-02-19T19:55:41.092Z,72.41
2023-02-19T19:58:13.045Z,72.35
2023-02-19T20:00:45.330Z,72.40
2023-02-19T20:03:17.217Z,72.41
2023-02-19T20:05:53.242Z,72.42
2023-02-19T20:08:25.306Z,72.43
2023-02-19T20:10:57.581Z,72.45
2023-02-19T20:13:30.794Z,72.47
2023-02-19T20:16:03.218Z,72.41
2023-02-19T20:18:36.063Z,72.39
2023-02-19T20:21:10.809Z,72.29
2023-02-19T20:23:42.931Z,72.18
2023-02-19T20:26:14.723Z,72.21
2023-02-19T20:28:47.041Z,72.19
2023-02-19T20:31:19.237Z,72.03
2023-02-19T20:33:51.911Z,72.15
2023-02-19T20:36:26.261Z,72.18
2023-02-19T20:38:57.727Z,72.21
2023-02-19T20:41:29.362Z,72.65
2023-02-19T20:44:01.482Z,72.10
2023-02-19T20:46:33.599Z,72.01
2023-02-19T20:49:05.744Z,71.84
2023-02-19T20:51:53.339Z,71.86
2023-02-19T20:54:28.051Z,71.87
2023-02-19T20:57:02.568Z,71.89
2023-02-19T20:59:38.902Z,71.81
2023-02-19T21:02:16.581Z,71.74
2023-02-19T21:04:48.811Z,71.58
2023-02-19T21:07:20.846Z,71.34
2023-02-19T21:09:53.010Z,71.28
2023-02-19T21:12:25.158Z,71.30
2023-02-19T21:14:57.214Z,71.25
2023-02-19T21:17:29.013Z,71.18
2023-02-19T21:20:01.015Z,71.00
2023-02-19T21:22:33.533Z,70.90
2023-02-19T21:25:05.865Z,70.67
2023-02-19T21:27:38.773Z,70.66
2023-02-19T21:30:11.011Z,70.81
2023-02-19T21:32:43.060Z,70.79
2023-02-19T21:35:15.283Z,70.80
2023-02-19T21:37:47.541Z,71.06
2023-02-19T21:40:21.058Z,71.18
2023-02-19T21:42:53.056Z,71.33
2023-02-19T21:45:25.209Z,71.40
2023-02-19T21:47:57.299Z,71.50
2023-02-19T21:50:29.454Z,71.63
2023-02-19T21:53:01.451Z,71.60
2023-02-19T21:55:33.716Z,71.57
2023-02-19T21:58:05.990Z,71.75
2023-02-19T22:00:38.198Z,71.79
2023-02-19T22:03:13.152Z,71.72
2023-02-19T22:05:45.918Z,71.78
2023-02-19T22:08:18.193Z,71.65
2023-02-19T22:10:50.151Z,71.45
2023-02-19T22:13:22.098Z,71.37
2023-02-19T22:15:54.094Z,71.37
2023-02-19T22:18:26.383Z,71.38
2023-02-19T22:20:58.486Z,71.23
2023-02-19T22:23:30.773Z,71.21
2023-02-19T22:26:02.782Z,71.11
2023-02-19T22:28:34.851Z,71.07
2023-02-19T22:31:08.761Z,71.04
2023-02-19T22:33:39.910Z,71.03
2023-02-19T22:36:22.907Z,71.58
2023-02-19T22:38:55.339Z,71.03
2023-02-19T22:41:27.760Z,70.94
2023-02-19T22:44:00.453Z,71.10
2023-02-19T22:46:32.535Z,71.08
2023-02-19T22:49:07.611Z,70.97
2023-02-19T22:51:44.177Z,70.96
2023-02-19T22:54:17.746Z,70.96
2023-02-19T22:56:49.633Z,71.04
2023-02-19T22:59:22.039Z,70.95
2023-02-19T23:01:55.117Z,70.83
2023-02-19T23:04:27.703Z,70.82
2023-02-19T23:06:59.846Z,70.80
2023-02-19T23:09:31.791Z,70.81
2023-02-19T23:12:07.155Z,70.77
2023-02-19T23:14:39.840Z,70.67
2023-02-19T23:17:12.010Z,70.62
2023-02-19T23:19:43.912Z,70.73
2023-02-19T23:22:16.455Z,70.71
2023-02-19T23:24:48.528Z,70.74
2023-02-19T23:27:20.714Z,70.91
2023-02-19T23:29:52.764Z,71.05
2023-02-19T23:32:24.598Z,71.14
2023-02-19T23:34:56.687Z,71.24
2023-02-19T23:37:28.848Z,71.30
2023-02-19T23:40:01.222Z,71.31
2023-02-19T23:42:33.446Z,71.41
2023-02-19T23:45:05.637Z,71.64
2023-02-19T23:47:37.557Z,71.75
2023-02-19T23:50:10.126Z,71.73
2023-02-19T23:52:42.334Z,71.71
2023-02-19T23:55:14.374Z,71.71
2023-02-19T23:57:46.411Z,71.72
